sensor_id;sensor_type;location;lat;lon;timestamp;pressure;altitude;pressure_sealevel;temperature
69435;BMP180;56625;54.322;18.582;2022-11-20T00:01:31;100469.40;;;-1.40
69435;BMP180;56625;54.322;18.582;2022-11-20T00:03:58;100469.20;;;-1.40
69435;BMP180;56625;54.322;18.582;2022-11-20T00:06:27;100475.20;;;-1.40
69435;BMP180;56625;54.322;18.582;2022-11-20T00:08:57;100480.60;;;-1.40
69435;BMP180;56625;54.322;18.582;2022-11-20T00:11:27;100475.80;;;-1.48
69435;BMP180;56625;54.322;18.582;2022-11-20T00:13:56;100476.60;;;-1.50
69435;BMP180;56625;54.322;18.582;2022-11-20T00:16:26;100476.00;;;-1.50
69435;BMP180;56625;54.322;18.582;2022-11-20T00:18:54;100471.80;;;-1.50
69435;BMP180;56625;54.322;18.582;2022-11-20T00:21:24;100473.40;;;-1.50
69435;BMP180;56625;54.322;18.582;2022-11-20T00:23:54;100471.40;;;-1.48
69435;BMP180;56625;54.322;18.582;2022-11-20T00:26:24;100463.80;;;-1.40
69435;BMP180;56625;54.322;18.582;2022-11-20T00:28:58;100463.40;;;-1.40
69435;BMP180;56625;54.322;18.582;2022-11-20T00:31:27;100464.60;;;-1.30
69435;BMP180;56625;54.322;18.582;2022-11-20T00:33:54;100463.00;;;-1.30
69435;BMP180;56625;54.322;18.582;2022-11-20T00:36:25;100464.80;;;-1.30
69435;BMP180;56625;54.322;18.582;2022-11-20T00:38:57;100464.00;;;-1.30
69435;BMP180;56625;54.322;18.582;2022-11-20T00:41:27;100462.60;;;-1.30
69435;BMP180;56625;54.322;18.582;2022-11-20T00:43:55;100463.40;;;-1.30
69435;BMP180;56625;54.322;18.582;2022-11-20T00:46:25;100468.40;;;-1.30
69435;BMP180;56625;54.322;18.582;2022-11-20T00:48:53;100470.40;;;-1.36
69435;BMP180;56625;54.322;18.582;2022-11-20T00:51:23;100467.20;;;-1.40
69435;BMP180;56625;54.322;18.582;2022-11-20T00:53:50;100466.20;;;-1.40
69435;BMP180;56625;54.322;18.582;2022-11-20T00:56:19;100472.20;;;-1.40
69435;BMP180;56625;54.322;18.582;2022-11-20T00:58:48;100470.60;;;-1.30
69435;BMP180;56625;54.322;18.582;2022-11-20T01:01:21;100470.40;;;-1.30
69435;BMP180;56625;54.322;18.582;2022-11-20T01:03:51;100474.20;;;-1.30
69435;BMP180;56625;54.322;18.582;2022-11-20T01:06:29;100474.40;;;-1.30
69435;BMP180;56625;54.322;18.582;2022-11-20T01:09:00;100474.20;;;-1.40
69435;BMP180;56625;54.322;18.582;2022-11-20T01:11:31;100473.20;;;-1.40
69435;BMP180;56625;54.322;18.582;2022-11-20T01:14:00;100472.60;;;-1.40
69435;BMP180;56625;54.322;18.582;2022-11-20T01:16:35;100472.80;;;-1.40
69435;BMP180;56625;54.322;18.582;2022-11-20T01:19:07;100471.60;;;-1.40
69435;BMP180;56625;54.322;18.582;2022-11-20T01:21:37;100471.00;;;-1.40
69435;BMP180;56625;54.322;18.582;2022-11-20T01:24:09;100473.80;;;-1.40
69435;BMP180;56625;54.322;18.582;2022-11-20T01:26:39;100471.00;;;-1.40
69435;BMP180;56625;54.322;18.582;2022-11-20T01:29:13;100467.00;;;-1.40
69435;BMP180;56625;54.322;18.582;2022-11-20T01:31:41;100465.00;;;-1.40
69435;BMP180;56625;54.322;18.582;2022-11-20T01:34:18;100463.40;;;-1.40
69435;BMP180;56625;54.322;18.582;2022-11-20T01:36:46;100468.40;;;-1.40
69435;BMP180;56625;54.322;18.582;2022-11-20T01:39:17;100468.60;;;-1.40
69435;BMP180;56625;54.322;18.582;2022-11-20T01:41:47;100466.40;;;-1.50
69435;BMP180;56625;54.322;18.582;2022-11-20T01:44:57;100471.40;;;-1.50
69435;BMP180;56625;54.322;18.582;2022-11-20T01:47:44;100473.40;;;-1.50
69435;BMP180;56625;54.322;18.582;2022-11-20T01:50:19;100466.60;;;-1.46
69435;BMP180;56625;54.322;18.582;2022-11-20T01:53:12;100472.00;;;-1.40
69435;BMP180;56625;54.322;18.582;2022-11-20T01:55:51;100466.80;;;-1.30
69435;BMP180;56625;54.322;18.582;2022-11-20T01:58:29;100465.00;;;-1.20
69435;BMP180;56625;54.322;18.582;2022-11-20T02:00:56;100464.20;;;-1.20
69435;BMP180;56625;54.322;18.582;2022-11-20T02:03:23;100461.80;;;-1.20
69435;BMP180;56625;54.322;18.582;2022-11-20T02:06:01;100467.00;;;-1.20
69435;BMP180;56625;54.322;18.582;2022-11-20T02:08:31;100466.60;;;-1.20
69435;BMP180;56625;54.322;18.582;2022-11-20T02:10:58;100466.20;;;-1.30
69435;BMP180;56625;54.322;18.582;2022-11-20T02:13:25;100462.60;;;-1.30
69435;BMP180;56625;54.322;18.582;2022-11-20T02:16:20;100467.40;;;-1.38
69435;BMP180;56625;54.322;18.582;2022-11-20T02:18:48;100463.40;;;-1.40
69435;BMP180;56625;54.322;18.582;2022-11-20T02:21:28;100461.00;;;-1.38
69435;BMP180;56625;54.322;18.582;2022-11-20T02:24:12;100462.40;;;-1.30
69435;BMP180;56625;54.322;18.582;2022-11-20T02:27:02;100457.80;;;-1.24
69435;BMP180;56625;54.322;18.582;2022-11-20T02:29:43;100456.20;;;-1.20
69435;BMP180;56625;54.322;18.582;2022-11-20T02:32:31;100460.40;;;-1.20
69435;BMP180;56625;54.322;18.582;2022-11-20T02:34:58;100466.00;;;-1.10
69435;BMP180;56625;54.322;18.582;2022-11-20T02:37:37;100456.40;;;-1.10
69435;BMP180;56625;54.322;18.582;2022-11-20T02:40:05;100458.00;;;-1.00
69435;BMP180;56625;54.322;18.582;2022-11-20T02:42:32;100456.60;;;-1.00
69435;BMP180;56625;54.322;18.582;2022-11-20T02:44:59;100454.60;;;-1.00
69435;BMP180;56625;54.322;18.582;2022-11-20T02:47:25;100455.60;;;-0.98
69435;BMP180;56625;54.322;18.582;2022-11-20T02:49:52;100457.20;;;-1.04
69435;BMP180;56625;54.322;18.582;2022-11-20T02:52:18;100460.60;;;-1.10
69435;BMP180;56625;54.322;18.582;2022-11-20T02:54:45;100459.40;;;-1.10
69435;BMP180;56625;54.322;18.582;2022-11-20T02:57:11;100453.60;;;-1.20
69435;BMP180;56625;54.322;18.582;2022-11-20T02:59:38;100454.80;;;-1.30
69435;BMP180;56625;54.322;18.582;2022-11-20T03:02:04;100454.20;;;-1.30
69435;BMP180;56625;54.322;18.582;2022-11-20T03:04:31;100451.20;;;-1.38
69435;BMP180;56625;54.322;18.582;2022-11-20T03:06:58;100447.40;;;-1.40
69435;BMP180;56625;54.322;18.582;2022-11-20T03:09:24;100441.80;;;-1.50
69435;BMP180;56625;54.322;18.582;2022-11-20T03:11:51;100446.80;;;-1.50
69435;BMP180;56625;54.322;18.582;2022-11-20T03:14:17;100447.60;;;-1.50
69435;BMP180;56625;54.322;18.582;2022-11-20T03:16:44;100443.60;;;-1.42
69435;BMP180;56625;54.322;18.582;2022-11-20T03:19:11;100438.80;;;-1.40
69435;BMP180;56625;54.322;18.582;2022-11-20T03:21:38;100431.40;;;-1.40
69435;BMP180;56625;54.322;18.582;2022-11-20T03:24:06;100432.60;;;-1.30
69435;BMP180;56625;54.322;18.582;2022-11-20T03:26:33;100434.60;;;-1.38
69435;BMP180;56625;54.322;18.582;2022-11-20T03:29:03;100435.60;;;-1.38
69435;BMP180;56625;54.322;18.582;2022-11-20T03:31:37;100432.40;;;-1.30
69435;BMP180;56625;54.322;18.582;2022-11-20T03:34:04;100430.80;;;-1.20
69435;BMP180;56625;54.322;18.582;2022-11-20T03:36:30;100431.00;;;-1.20
69435;BMP180;56625;54.322;18.582;2022-11-20T03:38:57;100432.60;;;-1.10
69435;BMP180;56625;54.322;18.582;2022-11-20T03:41:27;100435.20;;;-1.20
69435;BMP180;56625;54.322;18.582;2022-11-20T03:43:58;100428.20;;;-1.30
69435;BMP180;56625;54.322;18.582;2022-11-20T03:46:27;100429.20;;;-1.30
69435;BMP180;56625;54.322;18.582;2022-11-20T03:48:54;100426.40;;;-1.30
69435;BMP180;56625;54.322;18.582;2022-11-20T03:51:25;100423.40;;;-1.28
69435;BMP180;56625;54.322;18.582;2022-11-20T03:53:55;100422.20;;;-1.10
69435;BMP180;56625;54.322;18.582;2022-11-20T03:56:31;100414.80;;;-1.00
69435;BMP180;56625;54.322;18.582;2022-11-20T03:58:58;100416.00;;;-0.90
69435;BMP180;56625;54.322;18.582;2022-11-20T04:01:29;100418.00;;;-0.80
69435;BMP180;56625;54.322;18.582;2022-11-20T04:03:57;100413.40;;;-0.90
69435;BMP180;56625;54.322;18.582;2022-11-20T04:06:28;100417.80;;;-0.86
69435;BMP180;56625;54.322;18.582;2022-11-20T04:08:57;100418.60;;;-0.90
69435;BMP180;56625;54.322;18.582;2022-11-20T04:11:31;100417.80;;;-1.02
69435;BMP180;56625;54.322;18.582;2022-11-20T04:14:03;100412.00;;;-1.10
69435;BMP180;56625;54.322;18.582;2022-11-20T04:16:34;100406.60;;;-1.18
69435;BMP180;56625;54.322;18.582;2022-11-20T04:19:06;100407.80;;;-1.20
69435;BMP180;56625;54.322;18.582;2022-11-20T04:21:33;100406.80;;;-1.20
69435;BMP180;56625;54.322;18.582;2022-11-20T04:24:00;100406.80;;;-1.10
69435;BMP180;56625;54.322;18.582;2022-11-20T04:26:29;100407.00;;;-1.10
69435;BMP180;56625;54.322;18.582;2022-11-20T04:28:56;100410.80;;;-1.20
69435;BMP180;56625;54.322;18.582;2022-11-20T04:31:27;100407.00;;;-1.20
69435;BMP180;56625;54.322;18.582;2022-11-20T04:33:54;100409.60;;;-1.30
69435;BMP180;56625;54.322;18.582;2022-11-20T04:36:25;100409.00;;;-1.34
69435;BMP180;56625;54.322;18.582;2022-11-20T04:38:55;100411.40;;;-1.50
69435;BMP180;56625;54.322;18.582;2022-11-20T04:41:27;100402.20;;;-1.50
69435;BMP180;56625;54.322;18.582;2022-11-20T04:43:57;100408.80;;;-1.60
69435;BMP180;56625;54.322;18.582;2022-11-20T04:46:33;100411.00;;;-1.70
69435;BMP180;56625;54.322;18.582;2022-11-20T04:49:01;100411.00;;;-1.80
69435;BMP180;56625;54.322;18.582;2022-11-20T04:51:28;100403.00;;;-1.80
69435;BMP180;56625;54.322;18.582;2022-11-20T04:53:55;100405.60;;;-1.80
69435;BMP180;56625;54.322;18.582;2022-11-20T04:56:22;100401.20;;;-1.92
69435;BMP180;56625;54.322;18.582;2022-11-20T04:58:48;100399.40;;;-2.10
69435;BMP180;56625;54.322;18.582;2022-11-20T05:01:19;100400.20;;;-2.30
69435;BMP180;56625;54.322;18.582;2022-11-20T05:03:47;100397.20;;;-2.40
69435;BMP180;56625;54.322;18.582;2022-11-20T05:06:17;100396.00;;;-2.48
69435;BMP180;56625;54.322;18.582;2022-11-20T05:08:44;100400.20;;;-2.50
69435;BMP180;56625;54.322;18.582;2022-11-20T05:11:20;100401.20;;;-2.50
69435;BMP180;56625;54.322;18.582;2022-11-20T05:13:48;100395.20;;;-2.50
69435;BMP180;56625;54.322;18.582;2022-11-20T05:16:22;100398.40;;;-2.50
69435;BMP180;56625;54.322;18.582;2022-11-20T05:18:52;100397.20;;;-2.60
69435;BMP180;56625;54.322;18.582;2022-11-20T05:21:20;100393.00;;;-2.60
69435;BMP180;56625;54.322;18.582;2022-11-20T05:23:47;100395.60;;;-2.70
69435;BMP180;56625;54.322;18.582;2022-11-20T05:26:18;100386.40;;;-2.80
69435;BMP180;56625;54.322;18.582;2022-11-20T05:28:46;100382.00;;;-2.80
69435;BMP180;56625;54.322;18.582;2022-11-20T05:31:19;100380.60;;;-2.70
69435;BMP180;56625;54.322;18.582;2022-11-20T05:33:54;100379.20;;;-2.74
69435;BMP180;56625;54.322;18.582;2022-11-20T05:36:21;100378.80;;;-2.80
69435;BMP180;56625;54.322;18.582;2022-11-20T05:38:48;100375.40;;;-2.80
69435;BMP180;56625;54.322;18.582;2022-11-20T05:41:19;100369.60;;;-2.90
69435;BMP180;56625;54.322;18.582;2022-11-20T05:43:48;100372.60;;;-2.90
69435;BMP180;56625;54.322;18.582;2022-11-20T05:46:20;100375.00;;;-3.00
69435;BMP180;56625;54.322;18.582;2022-11-20T05:48:54;100373.20;;;-2.94
69435;BMP180;56625;54.322;18.582;2022-11-20T05:51:20;100369.40;;;-2.90
69435;BMP180;56625;54.322;18.582;2022-11-20T05:53:47;100374.00;;;-2.80
69435;BMP180;56625;54.322;18.582;2022-11-20T05:56:18;100372.20;;;-2.76
69435;BMP180;56625;54.322;18.582;2022-11-20T05:58:45;100367.40;;;-2.76
69435;BMP180;56625;54.322;18.582;2022-11-20T06:01:22;100364.80;;;-2.80
69435;BMP180;56625;54.322;18.582;2022-11-20T06:03:50;100361.20;;;-2.72
69435;BMP180;56625;54.322;18.582;2022-11-20T06:06:18;100363.40;;;-2.80
69435;BMP180;56625;54.322;18.582;2022-11-20T06:08:45;100358.00;;;-2.80
69435;BMP180;56625;54.322;18.582;2022-11-20T06:11:14;100359.80;;;-2.90
69435;BMP180;56625;54.322;18.582;2022-11-20T06:13:42;100362.00;;;-2.92
69435;BMP180;56625;54.322;18.582;2022-11-20T06:16:11;100364.80;;;-3.00
69435;BMP180;56625;54.322;18.582;2022-11-20T06:18:38;100365.40;;;-3.00
69435;BMP180;56625;54.322;18.582;2022-11-20T06:21:19;100360.20;;;-3.00
69435;BMP180;56625;54.322;18.582;2022-11-20T06:23:47;100361.80;;;-3.00
69435;BMP180;56625;54.322;18.582;2022-11-20T06:26:24;100364.20;;;-3.00
69435;BMP180;56625;54.322;18.582;2022-11-20T06:28:53;100357.60;;;-3.00
69435;BMP180;56625;54.322;18.582;2022-11-20T06:31:23;100354.60;;;-3.00
69435;BMP180;56625;54.322;18.582;2022-11-20T06:33:51;100353.80;;;-2.98
69435;BMP180;56625;54.322;18.582;2022-11-20T06:36:22;100357.20;;;-2.98
69435;BMP180;56625;54.322;18.582;2022-11-20T06:38:49;100358.60;;;-2.90
69435;BMP180;56625;54.322;18.582;2022-11-20T06:41:19;100356.60;;;-2.88
69435;BMP180;56625;54.322;18.582;2022-11-20T06:43:47;100355.40;;;-2.80
69435;BMP180;56625;54.322;18.582;2022-11-20T06:46:15;100357.80;;;-2.60
69435;BMP180;56625;54.322;18.582;2022-11-20T06:48:46;100358.60;;;-2.56
69435;BMP180;56625;54.322;18.582;2022-11-20T06:51:13;100360.20;;;-2.52
69435;BMP180;56625;54.322;18.582;2022-11-20T06:53:40;100362.40;;;-2.50
69435;BMP180;56625;54.322;18.582;2022-11-20T06:56:07;100368.40;;;-2.50
69435;BMP180;56625;54.322;18.582;2022-11-20T06:58:35;100369.80;;;-2.50
69435;BMP180;56625;54.322;18.582;2022-11-20T07:01:10;100361.20;;;-2.42
69435;BMP180;56625;54.322;18.582;2022-11-20T07:03:37;100364.20;;;-2.44
69435;BMP180;56625;54.322;18.582;2022-11-20T07:06:05;100357.80;;;-2.40
69435;BMP180;56625;54.322;18.582;2022-11-20T07:08:33;100364.60;;;-2.40
69435;BMP180;56625;54.322;18.582;2022-11-20T07:11:04;100364.40;;;-2.30
69435;BMP180;56625;54.322;18.582;2022-11-20T07:13:32;100364.40;;;-2.30
69435;BMP180;56625;54.322;18.582;2022-11-20T07:16:01;100362.40;;;-2.20
69435;BMP180;56625;54.322;18.582;2022-11-20T07:18:28;100361.40;;;-2.20
69435;BMP180;56625;54.322;18.582;2022-11-20T07:20:56;100357.20;;;-2.20
69435;BMP180;56625;54.322;18.582;2022-11-20T07:23:22;100362.40;;;-2.20
69435;BMP180;56625;54.322;18.582;2022-11-20T07:25:49;100363.00;;;-2.20
69435;BMP180;56625;54.322;18.582;2022-11-20T07:28:15;100368.20;;;-2.14
69435;BMP180;56625;54.322;18.582;2022-11-20T07:30:42;100366.20;;;-2.10
69435;BMP180;56625;54.322;18.582;2022-11-20T07:33:08;100361.20;;;-2.10
69435;BMP180;56625;54.322;18.582;2022-11-20T07:35:35;100359.60;;;-2.00
69435;BMP180;56625;54.322;18.582;2022-11-20T07:38:02;100357.60;;;-1.80
69435;BMP180;56625;54.322;18.582;2022-11-20T07:40:28;100355.40;;;-1.60
69435;BMP180;56625;54.322;18.582;2022-11-20T07:42:55;100354.00;;;-1.50
69435;BMP180;56625;54.322;18.582;2022-11-20T07:45:23;100349.60;;;-1.40
69435;BMP180;56625;54.322;18.582;2022-11-20T07:47:51;100343.60;;;-1.28
69435;BMP180;56625;54.322;18.582;2022-11-20T07:50:19;100344.20;;;-1.20
69435;BMP180;56625;54.322;18.582;2022-11-20T07:52:46;100340.40;;;-1.20
69435;BMP180;56625;54.322;18.582;2022-11-20T07:55:14;100338.40;;;-1.10
69435;BMP180;56625;54.322;18.582;2022-11-20T07:57:41;100340.40;;;-1.00
69435;BMP180;56625;54.322;18.582;2022-11-20T08:00:10;100338.60;;;-0.90
69435;BMP180;56625;54.322;18.582;2022-11-20T08:02:39;100338.00;;;-0.86
69435;BMP180;56625;54.322;18.582;2022-11-20T08:05:08;100336.80;;;-0.80
69435;BMP180;56625;54.322;18.582;2022-11-20T08:07:41;100340.00;;;-0.70
69435;BMP180;56625;54.322;18.582;2022-11-20T08:10:12;100329.80;;;-0.54
69435;BMP180;56625;54.322;18.582;2022-11-20T08:12:51;100322.40;;;-0.40
69435;BMP180;56625;54.322;18.582;2022-11-20T08:15:38;100327.60;;;-0.30
69435;BMP180;56625;54.322;18.582;2022-11-20T08:18:11;100325.20;;;-0.30
69435;BMP180;56625;54.322;18.582;2022-11-20T08:21:02;100327.80;;;-0.20
69435;BMP180;56625;54.322;18.582;2022-11-20T08:23:29;100328.00;;;-0.30
69435;BMP180;56625;54.322;18.582;2022-11-20T08:25:56;100323.00;;;-0.50
69435;BMP180;56625;54.322;18.582;2022-11-20T08:28:23;100332.40;;;-0.60
69435;BMP180;56625;54.322;18.582;2022-11-20T08:30:49;100332.20;;;-0.58
69435;BMP180;56625;54.322;18.582;2022-11-20T08:33:16;100328.80;;;-0.50
69435;BMP180;56625;54.322;18.582;2022-11-20T08:35:44;100323.80;;;-0.40
69435;BMP180;56625;54.322;18.582;2022-11-20T08:38:10;100333.60;;;-0.50
69435;BMP180;56625;54.322;18.582;2022-11-20T08:40:37;100330.60;;;-0.54
69435;BMP180;56625;54.322;18.582;2022-11-20T08:43:03;100333.20;;;-0.70
69435;BMP180;56625;54.322;18.582;2022-11-20T08:45:30;100321.20;;;-0.60
69435;BMP180;56625;54.322;18.582;2022-11-20T08:48:04;100323.80;;;-0.70
69435;BMP180;56625;54.322;18.582;2022-11-20T08:50:31;100318.40;;;-0.80
69435;BMP180;56625;54.322;18.582;2022-11-20T08:53:04;100317.80;;;-0.82
69435;BMP180;56625;54.322;18.582;2022-11-20T08:55:31;100312.20;;;-0.84
69435;BMP180;56625;54.322;18.582;2022-11-20T08:58:03;100307.60;;;-0.70
69435;BMP180;56625;54.322;18.582;2022-11-20T09:00:37;100306.80;;;-0.64
69435;BMP180;56625;54.322;18.582;2022-11-20T09:03:04;100307.00;;;-0.60
69435;BMP180;56625;54.322;18.582;2022-11-20T09:05:31;100305.00;;;-0.50
69435;BMP180;56625;54.322;18.582;2022-11-20T09:07:58;100300.80;;;-0.42
69435;BMP180;56625;54.322;18.582;2022-11-20T09:10:27;100297.80;;;-0.42
69435;BMP180;56625;54.322;18.582;2022-11-20T09:12:54;100302.60;;;-0.50
69435;BMP180;56625;54.322;18.582;2022-11-20T09:15:25;100298.20;;;-0.50
69435;BMP180;56625;54.322;18.582;2022-11-20T09:18:02;100301.80;;;-0.40
69435;BMP180;56625;54.322;18.582;2022-11-20T09:20:30;100299.80;;;-0.40
69435;BMP180;56625;54.322;18.582;2022-11-20T09:22:59;100298.00;;;-0.40
69435;BMP180;56625;54.322;18.582;2022-11-20T09:25:26;100293.80;;;-0.40
69435;BMP180;56625;54.322;18.582;2022-11-20T09:27:58;100289.80;;;-0.40
69435;BMP180;56625;54.322;18.582;2022-11-20T09:30:26;100282.80;;;-0.40
69435;BMP180;56625;54.322;18.582;2022-11-20T09:32:53;100286.40;;;-0.30
69435;BMP180;56625;54.322;18.582;2022-11-20T09:35:20;100281.40;;;-0.30
69435;BMP180;56625;54.322;18.582;2022-11-20T09:37:46;100275.80;;;-0.40
69435;BMP180;56625;54.322;18.582;2022-11-20T09:40:28;100275.80;;;-0.50
69435;BMP180;56625;54.322;18.582;2022-11-20T09:43:09;100275.00;;;-0.50
69435;BMP180;56625;54.322;18.582;2022-11-20T09:46:04;100274.20;;;-0.50
69435;BMP180;56625;54.322;18.582;2022-11-20T09:52:00;100270.20;;;-0.50
69435;BMP180;56625;54.322;18.582;2022-11-20T09:54:36;100272.00;;;-0.48
69435;BMP180;56625;54.322;18.582;2022-11-20T09:57:19;100268.80;;;-0.40
69435;BMP180;56625;54.322;18.582;2022-11-20T09:59:59;100269.00;;;-0.40
69435;BMP180;56625;54.322;18.582;2022-11-20T10:05:18;100260.40;;;-0.10
69435;BMP180;56625;54.322;18.582;2022-11-20T10:10:47;100256.60;;;0.10
69435;BMP180;56625;54.322;18.582;2022-11-20T10:22:32;100260.00;;;-0.30
69435;BMP180;56625;54.322;18.582;2022-11-20T10:25:15;100249.00;;;-0.30
69435;BMP180;56625;54.322;18.582;2022-11-20T10:28:10;100257.40;;;-0.30
69435;BMP180;56625;54.322;18.582;2022-11-20T10:30:42;100253.00;;;-0.30
69435;BMP180;56625;54.322;18.582;2022-11-20T10:33:22;100254.40;;;-0.28
69435;BMP180;56625;54.322;18.582;2022-11-20T10:36:26;100248.00;;;-0.30
69435;BMP180;56625;54.322;18.582;2022-11-20T10:39:00;100246.80;;;-0.32
69435;BMP180;56625;54.322;18.582;2022-11-20T10:41:37;100242.00;;;-0.30
69435;BMP180;56625;54.322;18.582;2022-11-20T10:44:15;100249.20;;;-0.30
69435;BMP180;56625;54.322;18.582;2022-11-20T10:47:05;100246.80;;;-0.20
69435;BMP180;56625;54.322;18.582;2022-11-20T10:49:36;100246.20;;;-0.20
69435;BMP180;56625;54.322;18.582;2022-11-20T10:52:29;100243.00;;;-0.10
69435;BMP180;56625;54.322;18.582;2022-11-20T10:55:20;100236.60;;;-0.10
69435;BMP180;56625;54.322;18.582;2022-11-20T10:58:08;100233.20;;;0.04
69435;BMP180;56625;54.322;18.582;2022-11-20T11:00:36;100228.40;;;0.06
69435;BMP180;56625;54.322;18.582;2022-11-20T11:03:07;100225.60;;;0.00
69435;BMP180;56625;54.322;18.582;2022-11-20T11:08:23;100229.60;;;-0.10
69435;BMP180;56625;54.322;18.582;2022-11-20T11:11:01;100226.20;;;-0.12
69435;BMP180;56625;54.322;18.582;2022-11-20T11:13:30;100224.60;;;-0.20
69435;BMP180;56625;54.322;18.582;2022-11-20T11:15:58;100226.60;;;-0.20
69435;BMP180;56625;54.322;18.582;2022-11-20T11:18:32;100225.40;;;-0.20
69435;BMP180;56625;54.322;18.582;2022-11-20T11:21:03;100221.60;;;-0.12
69435;BMP180;56625;54.322;18.582;2022-11-20T11:23:38;100228.60;;;-0.10
69435;BMP180;56625;54.322;18.582;2022-11-20T11:26:23;100225.00;;;0.00
69435;BMP180;56625;54.322;18.582;2022-11-20T11:29:02;100218.60;;;0.02
69435;BMP180;56625;54.322;18.582;2022-11-20T11:31:33;100219.20;;;0.00
69435;BMP180;56625;54.322;18.582;2022-11-20T11:34:16;100212.60;;;0.10
69435;BMP180;56625;54.322;18.582;2022-11-20T11:36:56;100207.00;;;0.04
69435;BMP180;56625;54.322;18.582;2022-11-20T11:39:25;100207.60;;;0.10
69435;BMP180;56625;54.322;18.582;2022-11-20T11:41:52;100208.80;;;0.10
69435;BMP180;56625;54.322;18.582;2022-11-20T11:44:24;100206.60;;;0.10
69435;BMP180;56625;54.322;18.582;2022-11-20T11:47:26;100203.00;;;0.10
69435;BMP180;56625;54.322;18.582;2022-11-20T11:52:59;100198.60;;;0.10
69435;BMP180;56625;54.322;18.582;2022-11-20T11:55:40;100198.20;;;0.10
69435;BMP180;56625;54.322;18.582;2022-11-20T12:01:24;100187.40;;;0.10
69435;BMP180;56625;54.322;18.582;2022-11-20T12:07:25;100180.40;;;0.30
69435;BMP180;56625;54.322;18.582;2022-11-20T12:13:34;100167.80;;;0.40
69435;BMP180;56625;54.322;18.582;2022-11-20T12:15:56;100165.20;;;0.40
69435;BMP180;56625;54.322;18.582;2022-11-20T12:18:23;100166.40;;;0.50
69435;BMP180;56625;54.322;18.582;2022-11-20T12:23:35;100157.80;;;0.40
69435;BMP180;56625;54.322;18.582;2022-11-20T12:32:28;100160.80;;;0.30
69435;BMP180;56625;54.322;18.582;2022-11-20T12:41:20;100151.20;;;0.20
69435;BMP180;56625;54.322;18.582;2022-11-20T12:47:47;100144.40;;;0.20
69435;BMP180;56625;54.322;18.582;2022-11-20T13:06:19;100122.00;;;0.00
69435;BMP180;56625;54.322;18.582;2022-11-20T13:08:54;100114.60;;;0.00
69435;BMP180;56625;54.322;18.582;2022-11-20T13:11:37;100113.80;;;0.00
69435;BMP180;56625;54.322;18.582;2022-11-20T13:14:10;100118.40;;;-0.02
69435;BMP180;56625;54.322;18.582;2022-11-20T13:17:05;100114.80;;;-0.04
69435;BMP180;56625;54.322;18.582;2022-11-20T13:19:35;100107.60;;;-0.08
69435;BMP180;56625;54.322;18.582;2022-11-20T13:22:01;100109.00;;;0.00
69435;BMP180;56625;54.322;18.582;2022-11-20T13:24:31;100107.40;;;0.00
69435;BMP180;56625;54.322;18.582;2022-11-20T13:29:44;100104.40;;;0.00
69435;BMP180;56625;54.322;18.582;2022-11-20T13:32:20;100101.80;;;0.00
69435;BMP180;56625;54.322;18.582;2022-11-20T13:37:38;100104.20;;;-0.10
69435;BMP180;56625;54.322;18.582;2022-11-20T13:42:43;100103.20;;;-0.20
69435;BMP180;56625;54.322;18.582;2022-11-20T13:45:27;100101.60;;;-0.20
69435;BMP180;56625;54.322;18.582;2022-11-20T13:47:57;100096.80;;;-0.20
69435;BMP180;56625;54.322;18.582;2022-11-20T13:50:46;100097.80;;;-0.20
69435;BMP180;56625;54.322;18.582;2022-11-20T13:56:43;100096.00;;;-0.20
69435;BMP180;56625;54.322;18.582;2022-11-20T14:00:15;100096.60;;;-0.20
69435;BMP180;56625;54.322;18.582;2022-11-20T14:02:18;100087.20;;;-0.20
69435;BMP180;56625;54.322;18.582;2022-11-20T14:04:50;100085.60;;;-0.20
69435;BMP180;56625;54.322;18.582;2022-11-20T14:07:21;100082.00;;;-0.20
69435;BMP180;56625;54.322;18.582;2022-11-20T14:09:55;100080.80;;;-0.30
69435;BMP180;56625;54.322;18.582;2022-11-20T14:12:29;100081.60;;;-0.28
69435;BMP180;56625;54.322;18.582;2022-11-20T14:14:56;100083.60;;;-0.20
69435;BMP180;56625;54.322;18.582;2022-11-20T14:17:31;100080.40;;;-0.20
69435;BMP180;56625;54.322;18.582;2022-11-20T14:20:06;100070.60;;;-0.12
69435;BMP180;56625;54.322;18.582;2022-11-20T14:22:33;100078.60;;;-0.10
69435;BMP180;56625;54.322;18.582;2022-11-20T14:25:19;100075.80;;;-0.14
69435;BMP180;56625;54.322;18.582;2022-11-20T14:27:58;100063.80;;;-0.10
69435;BMP180;56625;54.322;18.582;2022-11-20T14:30:42;100063.80;;;-0.20
69435;BMP180;56625;54.322;18.582;2022-11-20T14:33:13;100059.00;;;-0.20
69435;BMP180;56625;54.322;18.582;2022-11-20T14:35:46;100067.20;;;-0.24
69435;BMP180;56625;54.322;18.582;2022-11-20T14:38:17;100062.80;;;-0.20
69435;BMP180;56625;54.322;18.582;2022-11-20T14:40:45;100060.60;;;-0.20
69435;BMP180;56625;54.322;18.582;2022-11-20T14:43:25;100064.00;;;-0.20
69435;BMP180;56625;54.322;18.582;2022-11-20T14:46:00;100060.20;;;-0.20
69435;BMP180;56625;54.322;18.582;2022-11-20T14:48:34;100055.80;;;-0.28
69435;BMP180;56625;54.322;18.582;2022-11-20T14:51:01;100054.40;;;-0.20
69435;BMP180;56625;54.322;18.582;2022-11-20T14:53:28;100047.00;;;-0.28
69435;BMP180;56625;54.322;18.582;2022-11-20T14:56:00;100048.20;;;-0.30
69435;BMP180;56625;54.322;18.582;2022-11-20T14:58:33;100051.20;;;-0.30
69435;BMP180;56625;54.322;18.582;2022-11-20T15:01:06;100046.20;;;-0.20
69435;BMP180;56625;54.322;18.582;2022-11-20T15:03:37;100043.00;;;-0.20
69435;BMP180;56625;54.322;18.582;2022-11-20T15:06:06;100042.00;;;-0.20
69435;BMP180;56625;54.322;18.582;2022-11-20T15:08:34;100042.60;;;-0.20
69435;BMP180;56625;54.322;18.582;2022-11-20T15:11:02;100036.80;;;-0.30
69435;BMP180;56625;54.322;18.582;2022-11-20T15:13:36;100034.00;;;-0.30
69435;BMP180;56625;54.322;18.582;2022-11-20T15:16:17;100028.60;;;-0.30
69435;BMP180;56625;54.322;18.582;2022-11-20T15:18:45;100026.40;;;-0.30
69435;BMP180;56625;54.322;18.582;2022-11-20T15:21:18;100028.00;;;-0.30
69435;BMP180;56625;54.322;18.582;2022-11-20T15:23:45;100028.60;;;-0.30
69435;BMP180;56625;54.322;18.582;2022-11-20T15:26:16;100030.60;;;-0.30
69435;BMP180;56625;54.322;18.582;2022-11-20T15:28:47;100030.60;;;-0.30
69435;BMP180;56625;54.322;18.582;2022-11-20T15:31:20;100026.40;;;-0.30
69435;BMP180;56625;54.322;18.582;2022-11-20T15:33:48;100020.00;;;-0.32